sensor_id;sensor_type;location;lat;lon;timestamp;pressure;altitude;pressure_sealevel;temperature;humidity
79085;BME280;68486;42.808;23.422;2023-06-10T00:02:00;93763.78;;;16.51;75.05
79085;BME280;68486;42.808;23.422;2023-06-10T00:04:26;93788.84;;;16.94;74.39
79085;BME280;68486;42.808;23.422;2023-06-10T00:06:52;93791.25;;;16.95;72.77
79085;BME280;68486;42.808;23.422;2023-06-10T00:09:17;93779.06;;;16.94;72.18
79085;BME280;68486;42.808;23.422;2023-06-10T00:11:43;93785.31;;;17.05;73.27
79085;BME280;68486;42.808;23.422;2023-06-10T00:14:09;93782.13;;;17.03;73.78
79085;BME280;68486;42.808;23.422;2023-06-10T00:16:35;93783.72;;;17.04;74.29
79085;BME280;68486;42.808;23.422;2023-06-10T00:19:02;93785.22;;;17.00;73.11
79085;BME280;68486;42.808;23.422;2023-06-10T00:21:32;93783.38;;;17.00;74.48
79085;BME280;68486;42.808;23.422;2023-06-10T00:24:08;93782.34;;;16.85;74.45
79085;BME280;68486;42.808;23.422;2023-06-10T00:26:39;93784.81;;;17.08;73.57
79085;BME280;68486;42.808;23.422;2023-06-10T00:29:05;93784.94;;;16.96;75.06
79085;BME280;68486;42.808;23.422;2023-06-10T00:31:31;93776.34;;;16.89;75.09
79085;BME280;68486;42.808;23.422;2023-06-10T00:33:56;93787.25;;;16.76;75.34
79085;BME280;68486;42.808;23.422;2023-06-10T00:36:24;93788.19;;;16.70;75.30
79085;BME280;68486;42.808;23.422;2023-06-10T00:38:49;93798.09;;;16.63;75.36
79085;BME280;68486;42.808;23.422;2023-06-10T00:41:14;93807.06;;;16.62;75.17
79085;BME280;68486;42.808;23.422;2023-06-10T00:43:40;93809.44;;;16.46;76.41
79085;BME280;68486;42.808;23.422;2023-06-10T00:46:05;93818.34;;;16.28;77.41
79085;BME280;68486;42.808;23.422;2023-06-10T00:48:32;93810.56;;;16.22;78.60
79085;BME280;68486;42.808;23.422;2023-06-10T00:50:58;93822.56;;;16.13;79.26
79085;BME280;68486;42.808;23.422;2023-06-10T00:53:25;93818.94;;;16.31;78.82
79085;BME280;68486;42.808;23.422;2023-06-10T00:55:51;93820.97;;;16.40;78.49
79085;BME280;68486;42.808;23.422;2023-06-10T00:58:17;93824.13;;;16.25;78.88
79085;BME280;68486;42.808;23.422;2023-06-10T01:00:42;93815.50;;;16.30;78.58
79085;BME280;68486;42.808;23.422;2023-06-10T01:03:10;93825.06;;;16.19;78.79
79085;BME280;68486;42.808;23.422;2023-06-10T01:05:37;93820.47;;;16.43;77.96
79085;BME280;68486;42.808;23.422;2023-06-10T01:08:09;93807.41;;;16.37;77.82
79085;BME280;68486;42.808;23.422;2023-06-10T01:10:42;93818.63;;;16.44;78.09
79085;BME280;68486;42.808;23.422;2023-06-10T01:13:11;93816.28;;;16.02;79.67
79085;BME280;68486;42.808;23.422;2023-06-10T01:15:39;93791.94;;;16.28;77.85
79085;BME280;68486;42.808;23.422;2023-06-10T01:18:07;93816.19;;;16.54;77.85
79085;BME280;68486;42.808;23.422;2023-06-10T01:20:41;93812.84;;;16.59;77.03
79085;BME280;68486;42.808;23.422;2023-06-10T01:23:08;93749.91;;;15.98;77.85
79085;BME280;68486;42.808;23.422;2023-06-10T01:25:37;93805.63;;;16.54;77.50
79085;BME280;68486;42.808;23.422;2023-06-10T01:30:56;93805.28;;;16.50;77.89
79085;BME280;68486;42.808;23.422;2023-06-10T01:33:28;93778.69;;;16.12;79.25
79085;BME280;68486;42.808;23.422;2023-06-10T01:35:56;93809.53;;;15.94;81.79
79085;BME280;68486;42.808;23.422;2023-06-10T01:38:23;93803.94;;;16.08;83.31
79085;BME280;68486;42.808;23.422;2023-06-10T01:40:55;93809.63;;;16.28;82.51
79085;BME280;68486;42.808;23.422;2023-06-10T01:43:20;93786.78;;;16.22;81.13
79085;BME280;68486;42.808;23.422;2023-06-10T01:45:46;93785.28;;;15.97;81.94
79085;BME280;68486;42.808;23.422;2023-06-10T01:48:12;93796.78;;;15.91;83.72
79085;BME280;68486;42.808;23.422;2023-06-10T01:50:37;93776.41;;;15.75;82.91
79085;BME280;68486;42.808;23.422;2023-06-10T01:53:03;93794.06;;;16.15;83.45
79085;BME280;68486;42.808;23.422;2023-06-10T01:55:29;93800.81;;;16.22;83.30
79085;BME280;68486;42.808;23.422;2023-06-10T01:57:54;93767.66;;;15.75;85.07
79085;BME280;68486;42.808;23.422;2023-06-10T02:00:20;93788.44;;;15.71;84.29
79085;BME280;68486;42.808;23.422;2023-06-10T02:02:45;93782.22;;;15.89;84.86
79085;BME280;68486;42.808;23.422;2023-06-10T02:05:11;93791.03;;;15.94;85.80
79085;BME280;68486;42.808;23.422;2023-06-10T02:07:36;93789.63;;;16.04;86.19
79085;BME280;68486;42.808;23.422;2023-06-10T02:10:04;93761.41;;;15.92;84.81
79085;BME280;68486;42.808;23.422;2023-06-10T02:12:30;93792.66;;;15.95;85.67
79085;BME280;68486;42.808;23.422;2023-06-10T02:14:55;93790.19;;;16.06;85.55
79085;BME280;68486;42.808;23.422;2023-06-10T02:17:21;93773.34;;;15.95;85.77
79085;BME280;68486;42.808;23.422;2023-06-10T02:19:48;93790.59;;;15.86;85.35
79085;BME280;68486;42.808;23.422;2023-06-10T02:22:22;93779.63;;;15.65;85.31
79085;BME280;68486;42.808;23.422;2023-06-10T02:24:48;93792.00;;;15.77;86.43
79085;BME280;68486;42.808;23.422;2023-06-10T02:27:15;93785.41;;;15.91;86.64
79085;BME280;68486;42.808;23.422;2023-06-10T02:29:40;93723.16;;;15.55;85.08
79085;BME280;68486;42.808;23.422;2023-06-10T02:32:06;93771.94;;;15.64;86.05
79085;BME280;68486;42.808;23.422;2023-06-10T02:34:32;93782.50;;;15.64;86.92
79085;BME280;68486;42.808;23.422;2023-06-10T02:36:58;93779.16;;;15.80;86.94
79085;BME280;68486;42.808;23.422;2023-06-10T02:39:24;93779.16;;;15.80;85.25
79085;BME280;68486;42.808;23.422;2023-06-10T02:41:49;93777.31;;;15.69;85.91
79085;BME280;68486;42.808;23.422;2023-06-10T02:44:15;93771.00;;;15.70;86.09
79085;BME280;68486;42.808;23.422;2023-06-10T02:46:40;93771.09;;;15.87;85.63
79085;BME280;68486;42.808;23.422;2023-06-10T02:49:06;93773.88;;;15.80;85.67
79085;BME280;68486;42.808;23.422;2023-06-10T02:51:31;93771.53;;;15.84;85.74
79085;BME280;68486;42.808;23.422;2023-06-10T02:53:56;93768.38;;;15.70;84.98
79085;BME280;68486;42.808;23.422;2023-06-10T02:56:22;93768.50;;;15.40;85.57
79085;BME280;68486;42.808;23.422;2023-06-10T02:58:47;93771.50;;;15.20;87.50
79085;BME280;68486;42.808;23.422;2023-06-10T03:01:14;93773.94;;;15.10;86.75
79085;BME280;68486;42.808;23.422;2023-06-10T03:03:39;93772.78;;;15.29;86.11
79085;BME280;68486;42.808;23.422;2023-06-10T03:06:10;93780.22;;;15.44;85.48
79085;BME280;68486;42.808;23.422;2023-06-10T03:08:36;93770.50;;;15.21;85.72
79085;BME280;68486;42.808;23.422;2023-06-10T03:11:02;93782.66;;;15.22;86.17
79085;BME280;68486;42.808;23.422;2023-06-10T03:13:28;93785.81;;;15.48;85.75
79085;BME280;68486;42.808;23.422;2023-06-10T03:15:53;93785.13;;;15.64;85.70
79085;BME280;68486;42.808;23.422;2023-06-10T03:18:18;93783.34;;;15.29;85.65
79085;BME280;68486;42.808;23.422;2023-06-10T03:20:44;93788.03;;;15.15;85.67
79085;BME280;68486;42.808;23.422;2023-06-10T03:23:09;93788.81;;;15.39;85.06
79085;BME280;68486;42.808;23.422;2023-06-10T03:25:35;93787.41;;;15.49;84.44
79085;BME280;68486;42.808;23.422;2023-06-10T03:28:01;93790.22;;;15.30;84.86
79085;BME280;68486;42.808;23.422;2023-06-10T03:30:28;93789.28;;;15.36;84.27
79085;BME280;68486;42.808;23.422;2023-06-10T03:32:53;93791.94;;;15.36;84.48
79085;BME280;68486;42.808;23.422;2023-06-10T03:35:19;93787.88;;;15.69;84.52
79085;BME280;68486;42.808;23.422;2023-06-10T03:37:44;93793.69;;;15.94;84.52
79085;BME280;68486;42.808;23.422;2023-06-10T03:40:10;93793.38;;;16.08;83.53
79085;BME280;68486;42.808;23.422;2023-06-10T03:42:36;93790.19;;;16.06;82.29
79085;BME280;68486;42.808;23.422;2023-06-10T03:45:02;93767.34;;;15.99;82.27
79085;BME280;68486;42.808;23.422;2023-06-10T03:47:33;93804.28;;;16.23;82.39
79085;BME280;68486;42.808;23.422;2023-06-10T03:50:00;93796.13;;;16.41;82.26
79085;BME280;68486;42.808;23.422;2023-06-10T03:52:25;93800.13;;;16.44;83.26
79085;BME280;68486;42.808;23.422;2023-06-10T03:54:50;93764.94;;;16.26;83.29
79085;BME280;68486;42.808;23.422;2023-06-10T03:57:16;93790.06;;;16.58;82.28
79085;BME280;68486;42.808;23.422;2023-06-10T03:59:41;93802.34;;;16.64;82.74
79085;BME280;68486;42.808;23.422;2023-06-10T04:02:06;93792.19;;;16.72;82.43
79085;BME280;68486;42.808;23.422;2023-06-10T04:04:34;93763.63;;;16.58;82.18
79085;BME280;68486;42.808;23.422;2023-06-10T04:06:59;93794.38;;;16.47;82.69
79085;BME280;68486;42.808;23.422;2023-06-10T04:09:25;93791.28;;;16.67;79.63
79085;BME280;68486;42.808;23.422;2023-06-10T04:11:50;93783.56;;;16.77;81.31
79085;BME280;68486;42.808;23.422;2023-06-10T04:14:16;93777.63;;;16.70;81.06
79085;BME280;68486;42.808;23.422;2023-06-10T04:16:42;93803.75;;;16.83;79.20
79085;BME280;68486;42.808;23.422;2023-06-10T04:19:08;93803.19;;;16.81;79.62
79085;BME280;68486;42.808;23.422;2023-06-10T04:21:33;93790.63;;;16.88;79.40
79085;BME280;68486;42.808;23.422;2023-06-10T04:23:58;93784.53;;;16.88;79.36
79085;BME280;68486;42.808;23.422;2023-06-10T04:26:24;93791.88;;;16.86;79.33
79085;BME280;68486;42.808;23.422;2023-06-10T04:28:51;93792.06;;;16.96;79.53
79085;BME280;68486;42.808;23.422;2023-06-10T04:31:16;93792.44;;;17.04;78.85
79085;BME280;68486;42.808;23.422;2023-06-10T04:33:41;93788.03;;;16.93;78.42
79085;BME280;68486;42.808;23.422;2023-06-10T04:36:07;93781.72;;;16.66;78.86
79085;BME280;68486;42.808;23.422;2023-06-10T04:38:32;93788.69;;;17.00;77.59
79085;BME280;68486;42.808;23.422;2023-06-10T04:40:57;93792.19;;;17.23;77.73
79085;BME280;68486;42.808;23.422;2023-06-10T04:43:23;93780.72;;;17.34;77.57
79085;BME280;68486;42.808;23.422;2023-06-10T04:45:49;93788.31;;;17.47;73.48
79085;BME280;68486;42.808;23.422;2023-06-10T04:48:14;93787.72;;;17.06;77.55
79085;BME280;68486;42.808;23.422;2023-06-10T04:50:40;93789.03;;;17.43;75.03
79085;BME280;68486;42.808;23.422;2023-06-10T04:53:05;93762.00;;;17.41;77.21
79085;BME280;68486;42.808;23.422;2023-06-10T04:55:31;93786.72;;;17.85;77.08
79085;BME280;68486;42.808;23.422;2023-06-10T04:57:58;93791.19;;;18.06;76.11
79085;BME280;68486;42.808;23.422;2023-06-10T05:00:23;93788.00;;;18.04;76.75
79085;BME280;68486;42.808;23.422;2023-06-10T05:02:48;93786.31;;;18.20;72.79
79085;BME280;68486;42.808;23.422;2023-06-10T05:05:16;93783.19;;;18.01;73.75
79085;BME280;68486;42.808;23.422;2023-06-10T05:07:42;93787.63;;;18.44;73.60
79085;BME280;68486;42.808;23.422;2023-06-10T05:10:08;93801.81;;;18.60;73.09
79085;BME280;68486;42.808;23.422;2023-06-10T05:12:33;93798.69;;;18.63;73.66
79085;BME280;68486;42.808;23.422;2023-06-10T05:14:59;93802.34;;;18.57;74.89
79085;BME280;68486;42.808;23.422;2023-06-10T05:17:24;93795.78;;;18.38;75.16
79085;BME280;68486;42.808;23.422;2023-06-10T05:19:50;93800.19;;;18.54;75.40
79085;BME280;68486;42.808;23.422;2023-06-10T05:22:16;93811.16;;;18.63;75.26
79085;BME280;68486;42.808;23.422;2023-06-10T05:24:43;93812.44;;;18.87;74.04
79085;BME280;68486;42.808;23.422;2023-06-10T05:27:09;93804.81;;;18.96;73.73
79085;BME280;68486;42.808;23.422;2023-06-10T05:29:34;93806.53;;;19.07;74.16
79085;BME280;68486;42.808;23.422;2023-06-10T05:32:00;93805.19;;;19.47;72.20
79085;BME280;68486;42.808;23.422;2023-06-10T05:34:30;93814.22;;;19.09;73.23
79085;BME280;68486;42.808;23.422;2023-06-10T05:36:55;93809.81;;;19.19;72.37
79085;BME280;68486;42.808;23.422;2023-06-10T05:39:21;93814.38;;;19.29;72.89
79085;BME280;68486;42.808;23.422;2023-06-10T05:41:46;93812.09;;;19.11;72.55
79085;BME280;68486;42.808;23.422;2023-06-10T05:44:11;93802.41;;;19.26;71.35
79085;BME280;68486;42.808;23.422;2023-06-10T05:46:37;93821.72;;;19.17;72.55
79085;BME280;68486;42.808;23.422;2023-06-10T05:49:02;93822.34;;;20.19;69.61
79085;BME280;68486;42.808;23.422;2023-06-10T05:51:28;93822.66;;;20.32;69.34
79085;BME280;68486;42.808;23.422;2023-06-10T05:53:54;93802.06;;;20.02;66.98
79085;BME280;68486;42.808;23.422;2023-06-10T05:56:19;93824.78;;;20.30;67.31
79085;BME280;68486;42.808;23.422;2023-06-10T05:58:48;93789.94;;;20.32;66.33
79085;BME280;68486;42.808;23.422;2023-06-10T06:01:13;93814.56;;;21.26;64.18
79085;BME280;68486;42.808;23.422;2023-06-10T06:03:39;93816.97;;;21.27;61.37
79085;BME280;68486;42.808;23.422;2023-06-10T06:06:05;93810.03;;;20.75;63.52
79085;BME280;68486;42.808;23.422;2023-06-10T06:08:30;93809.75;;;21.68;63.02
79085;BME280;68486;42.808;23.422;2023-06-10T06:10:56;93812.03;;;22.16;62.07
79085;BME280;68486;42.808;23.422;2023-06-10T06:13:21;93783.41;;;22.86;58.42
79085;BME280;68486;42.808;23.422;2023-06-10T06:15:47;93810.97;;;22.01;61.50
79085;BME280;68486;42.808;23.422;2023-06-10T06:18:12;93811.16;;;22.80;58.37
79085;BME280;68486;42.808;23.422;2023-06-10T06:20:38;93793.78;;;22.43;59.26
79085;BME280;68486;42.808;23.422;2023-06-10T06:23:03;93814.28;;;22.53;60.26
79085;BME280;68486;42.808;23.422;2023-06-10T06:25:29;93809.00;;;23.26;58.19
79085;BME280;68486;42.808;23.422;2023-06-10T06:27:54;93806.50;;;22.56;57.67
79085;BME280;68486;42.808;23.422;2023-06-10T06:30:19;93816.56;;;23.14;56.90
79085;BME280;68486;42.808;23.422;2023-06-10T06:32:45;93808.75;;;22.39;59.91
79085;BME280;68486;42.808;23.422;2023-06-10T06:35:10;93821.41;;;22.03;61.53
79085;BME280;68486;42.808;23.422;2023-06-10T06:37:36;93827.88;;;21.71;61.93
79085;BME280;68486;42.808;23.422;2023-06-10T06:40:02;93824.94;;;20.86;65.21
79085;BME280;68486;42.808;23.422;2023-06-10T06:42:29;93808.91;;;20.56;64.32
79085;BME280;68486;42.808;23.422;2023-06-10T06:44:54;93811.00;;;20.44;65.03
79085;BME280;68486;42.808;23.422;2023-06-10T06:47:20;93816.94;;;20.91;63.83
79085;BME280;68486;42.808;23.422;2023-06-10T06:49:46;93811.41;;;21.39;61.81
79085;BME280;68486;42.808;23.422;2023-06-10T06:52:12;93815.03;;;20.61;63.42
79085;BME280;68486;42.808;23.422;2023-06-10T06:54:38;93799.56;;;21.91;58.82
79085;BME280;68486;42.808;23.422;2023-06-10T06:57:03;93797.25;;;21.13;59.95
79085;BME280;68486;42.808;23.422;2023-06-10T06:59:29;93803.50;;;22.14;56.73
79085;BME280;68486;42.808;23.422;2023-06-10T07:01:54;93796.69;;;22.47;56.14
79085;BME280;68486;42.808;23.422;2023-06-10T07:04:20;93772.00;;;23.09;54.87
79085;BME280;68486;42.808;23.422;2023-06-10T07:06:47;93797.09;;;22.20;56.97
79085;BME280;68486;42.808;23.422;2023-06-10T07:09:12;93793.50;;;23.28;55.10
79085;BME280;68486;42.808;23.422;2023-06-10T07:11:38;93793.47;;;23.62;55.71
79085;BME280;68486;42.808;23.422;2023-06-10T07:14:04;93795.00;;;23.10;55.53
79085;BME280;68486;42.808;23.422;2023-06-10T07:16:29;93796.34;;;21.99;57.61
79085;BME280;68486;42.808;23.422;2023-06-10T07:18:55;93767.91;;;23.51;54.65
79085;BME280;68486;42.808;23.422;2023-06-10T07:21:20;93800.31;;;24.45;52.40
79085;BME280;68486;42.808;23.422;2023-06-10T07:23:46;93747.81;;;24.07;51.60
79085;BME280;68486;42.808;23.422;2023-06-10T07:26:11;93801.13;;;23.11;54.58
79085;BME280;68486;42.808;23.422;2023-06-10T07:28:39;93797.44;;;24.42;52.73
79085;BME280;68486;42.808;23.422;2023-06-10T07:31:05;93772.75;;;25.01;50.44
79085;BME280;68486;42.808;23.422;2023-06-10T07:33:31;93795.19;;;24.68;52.23
79085;BME280;68486;42.808;23.422;2023-06-10T07:35:56;93791.56;;;24.96;49.33
79085;BME280;68486;42.808;23.422;2023-06-10T07:38:21;93782.16;;;26.24;46.78
79085;BME280;68486;42.808;23.422;2023-06-10T07:40:47;93793.25;;;24.31;52.71
79085;BME280;68486;42.808;23.422;2023-06-10T07:43:12;93790.44;;;23.11;55.48
79085;BME280;68486;42.808;23.422;2023-06-10T07:45:41;93788.00;;;23.44;52.66
79085;BME280;68486;42.808;23.422;2023-06-10T07:48:06;93785.94;;;23.93;50.08
79085;BME280;68486;42.808;23.422;2023-06-10T07:50:33;93791.28;;;23.01;54.55
79085;BME280;68486;42.808;23.422;2023-06-10T07:52:58;93790.06;;;22.39;55.88
79085;BME280;68486;42.808;23.422;2023-06-10T07:55:23;93786.13;;;22.32;57.41
79085;BME280;68486;42.808;23.422;2023-06-10T07:57:51;93785.69;;;21.99;58.55
79085;BME280;68486;42.808;23.422;2023-06-10T08:00:17;93781.91;;;22.65;55.52
79085;BME280;68486;42.808;23.422;2023-06-10T08:02:42;93777.69;;;23.32;52.68
79085;BME280;68486;42.808;23.422;2023-06-10T08:05:08;93786.06;;;22.81;55.30
79085;BME280;68486;42.808;23.422;2023-06-10T08:07:33;93787.13;;;22.90;55.09
79085;BME280;68486;42.808;23.422;2023-06-10T08:10:00;93784.28;;;24.21;50.28
79085;BME280;68486;42.808;23.422;2023-06-10T08:12:25;93782.66;;;24.44;49.61
79085;BME280;68486;42.808;23.422;2023-06-10T08:14:51;93776.50;;;26.39;43.71
79085;BME280;68486;42.808;23.422;2023-06-10T08:17:16;93778.66;;;26.51;44.22
79085;BME280;68486;42.808;23.422;2023-06-10T08:19:42;93785.22;;;26.31;47.02
79085;BME280;68486;42.808;23.422;2023-06-10T08:22:07;93771.06;;;25.24;47.42
79085;BME280;68486;42.808;23.422;2023-06-10T08:24:33;93773.00;;;26.11;44.18
79085;BME280;68486;42.808;23.422;2023-06-10T08:26:58;93765.03;;;25.93;45.43
79085;BME280;68486;42.808;23.422;2023-06-10T08:29:25;93780.63;;;25.77;45.13
79085;BME280;68486;42.808;23.422;2023-06-10T08:31:50;93768.97;;;27.45;42.17
79085;BME280;68486;42.808;23.422;2023-06-10T08:34:16;93765.50;;;27.44;39.25
79085;BME280;68486;42.808;23.422;2023-06-10T08:36:43;93753.66;;;27.68;38.93
79085;BME280;68486;42.808;23.422;2023-06-10T08:39:08;93748.75;;;29.27;39.07
79085;BME280;68486;42.808;23.422;2023-06-10T08:41:35;93773.47;;;29.64;36.94
79085;BME280;68486;42.808;23.422;2023-06-10T08:44:14;93770.28;;;27.25;41.49
79085;BME280;68486;42.808;23.422;2023-06-10T08:46:44;93766.63;;;27.21;40.23
79085;BME280;68486;42.808;23.422;2023-06-10T08:49:20;93766.72;;;27.92;38.36
79085;BME280;68486;42.808;23.422;2023-06-10T08:51:55;93761.22;;;29.66;35.15
79085;BME280;68486;42.808;23.422;2023-06-10T08:54:27;93761.50;;;27.95;37.20
79085;BME280;68486;42.808;23.422;2023-06-10T08:56:55;93759.88;;;26.87;39.81
79085;BME280;68486;42.808;23.422;2023-06-10T08:59:21;93755.91;;;28.97;35.57
79085;BME280;68486;42.808;23.422;2023-06-10T09:01:47;93720.91;;;29.61;34.81
79085;BME280;68486;42.808;23.422;2023-06-10T09:04:13;93755.00;;;30.22;34.67
79085;BME280;68486;42.808;23.422;2023-06-10T09:06:40;93734.13;;;30.01;33.46
79085;BME280;68486;42.808;23.422;2023-06-10T09:09:06;93744.25;;;29.66;32.62
79085;BME280;68486;42.808;23.422;2023-06-10T09:11:32;93721.63;;;29.15;33.81
79085;BME280;68486;42.808;23.422;2023-06-10T09:13:58;93743.19;;;28.54;35.01
79085;BME280;68486;42.808;23.422;2023-06-10T09:16:27;93725.44;;;29.23;33.68
79085;BME280;68486;42.808;23.422;2023-06-10T09:18:52;93744.94;;;30.60;32.62
79085;BME280;68486;42.808;23.422;2023-06-10T09:21:23;93735.72;;;31.03;32.40
79085;BME280;68486;42.808;23.422;2023-06-10T09:23:49;93727.78;;;30.56;31.29
79085;BME280;68486;42.808;23.422;2023-06-10T09:26:15;93732.44;;;30.97;32.11
79085;BME280;68486;42.808;23.422;2023-06-10T09:28:43;93729.56;;;31.36;30.88
79085;BME280;68486;42.808;23.422;2023-06-10T09:31:09;93729.28;;;32.07;31.09
79085;BME280;68486;42.808;23.422;2023-06-10T09:33:38;93736.09;;;31.14;33.26
79085;BME280;68486;42.808;23.422;2023-06-10T09:36:07;93736.53;;;30.83;32.50
79085;BME280;68486;42.808;23.422;2023-06-10T09:38:33;93732.13;;;30.48;34.54
79085;BME280;68486;42.808;23.422;2023-06-10T09:40:59;93715.91;;;29.89;34.06
79085;BME280;68486;42.808;23.422;2023-06-10T09:43:44;93737.06;;;30.17;33.44
79085;BME280;68486;42.808;23.422;2023-06-10T09:46:15;93711.91;;;29.40;34.37
79085;BME280;68486;42.808;23.422;2023-06-10T09:48:42;93730.78;;;30.34;30.78
79085;BME280;68486;42.808;23.422;2023-06-10T09:51:09;93730.94;;;30.37;31.06
79085;BME280;68486;42.808;23.422;2023-06-10T09:53:36;93731.00;;;29.82;31.14
79085;BME280;68486;42.808;23.422;2023-06-10T09:56:01;93726.66;;;29.98;29.37
79085;BME280;68486;42.808;23.422;2023-06-10T09:58:37;93722.53;;;29.62;30.53
79085;BME280;68486;42.808;23.422;2023-06-10T10:01:08;93725.63;;;28.92;32.91
79085;BME280;68486;42.808;23.422;2023-06-10T10:03:34;93712.63;;;30.72;29.20
79085;BME280;68486;42.808;23.422;2023-06-10T10:06:08;93694.81;;;30.21;27.64
79085;BME280;68486;42.808;23.422;2023-06-10T10:08:34;93694.22;;;29.69;25.32
79085;BME280;68486;42.808;23.422;2023-06-10T10:11:00;93708.50;;;31.08;23.78
79085;BME280;68486;42.808;23.422;2023-06-10T10:13:27;93699.28;;;30.17;22.69
79085;BME280;68486;42.808;23.422;2023-06-10T10:15:55;93707.31;;;31.51;22.58
79085;BME280;68486;42.808;23.422;2023-06-10T10:18:24;93706.53;;;29.87;22.79
79085;BME280;68486;42.808;23.422;2023-06-10T10:20:54;93705.88;;;29.90;22.38
79085;BME280;68486;42.808;23.422;2023-06-10T10:23:32;93695.38;;;30.98;21.01
79085;BME280;68486;42.808;23.422;2023-06-10T10:26:04;93699.41;;;33.20;19.46
79085;BME280;68486;42.808;23.422;2023-06-10T10:28:38;93695.44;;;33.46;18.85
79085;BME280;68486;42.808;23.422;2023-06-10T10:31:08;93688.38;;;33.41;18.35
79085;BME280;68486;42.808;23.422;2023-06-10T10:34:02;93680.53;;;31.04;22.15
79085;BME280;68486;42.808;23.422;2023-06-10T10:36:30;93675.00;;;32.80;22.16
79085;BME280;68486;42.808;23.422;2023-06-10T10:38:56;93654.84;;;31.43;21.24
79085;BME280;68486;42.808;23.422;2023-06-10T10:41:23;93679.88;;;29.38;24.95
79085;BME280;68486;42.808;23.422;2023-06-10T10:43:52;93675.50;;;30.10;22.59
79085;BME280;68486;42.808;23.422;2023-06-10T10:46:18;93673.84;;;29.42;24.22
79085;BME280;68486;42.808;23.422;2023-06-10T10:48:44;93684.53;;;29.21;24.06
79085;BME280;68486;42.808;23.422;2023-06-10T10:51:10;93671.06;;;29.67;23.59
79085;BME280;68486;42.808;23.422;2023-06-10T10:53:39;93679.16;;;30.56;22.67
79085;BME280;68486;42.808;23.422;2023-06-10T10:56:13;93685.84;;;30.80;24.46
79085;BME280;68486;42.808;23.422;2023-06-10T10:58:39;93675.34;;;29.69;23.56
79085;BME280;68486;42.808;23.422;2023-06-10T11:01:12;93664.00;;;30.22;23.46
79085;BME280;68486;42.808;23.422;2023-06-10T11:03:44;93673.47;;;29.60;24.14
79085;BME280;68486;42.808;23.422;2023-06-10T11:06:14;93661.56;;;30.29;23.32
79085;BME280;68486;42.808;23.422;2023-06-10T11:11:38;93655.97;;;27.28;26.70
79085;BME280;68486;42.808;23.422;2023-06-10T11:14:26;93649.66;;;28.81;25.19
79085;BME280;68486;42.808;23.422;2023-06-10T11:16:57;93645.38;;;30.00;24.69
79085;BME280;68486;42.808;23.422;2023-06-10T11:19:36;93640.69;;;29.32;24.90
79085;BME280;68486;42.808;23.422;2023-06-10T11:22:06;93642.81;;;28.14;26.88
79085;BME280;68486;42.808;23.422;2023-06-10T11:24:33;93633.69;;;29.87;25.79
79085;BME280;68486;42.808;23.422;2023-06-10T11:27:17;93634.50;;;31.58;22.58
79085;BME280;68486;42.808;23.422;2023-06-10T11:32:30;93637.81;;;31.31;22.16
79085;BME280;68486;42.808;23.422;2023-06-10T11:34:59;93624.69;;;31.08;21.98
79085;BME280;68486;42.808;23.422;2023-06-10T11:37:25;93619.22;;;32.27;21.62
79085;BME280;68486;42.808;23.422;2023-06-10T11:39:54;93613.03;;;32.26;21.20
79085;BME280;68486;42.808;23.422;2023-06-10T11:42:21;93595.00;;;33.30;20.17
79085;BME280;68486;42.808;23.422;2023-06-10T11:44:50;93611.06;;;32.91;20.19
79085;BME280;68486;42.808;23.422;2023-06-10T11:47:17;93606.34;;;33.64;19.60
79085;BME280;68486;42.808;23.422;2023-06-10T11:49:42;93616.09;;;32.65;21.69
79085;BME280;68486;42.808;23.422;2023-06-10T11:52:08;93622.81;;;33.55;20.01
79085;BME280;68486;42.808;23.422;2023-06-10T11:54:34;93615.94;;;32.86;20.08
79085;BME280;68486;42.808;23.422;2023-06-10T11:56:59;93611.41;;;33.97;19.38
79085;BME280;68486;42.808;23.422;2023-06-10T11:59:33;93617.22;;;32.64;19.64
79085;BME280;68486;42.808;23.422;2023-06-10T12:02:00;93623.84;;;33.98;19.91
79085;BME280;68486;42.808;23.422;2023-06-10T12:04:26;93611.94;;;31.78;22.26
79085;BME280;68486;42.808;23.422;2023-06-10T12:06:52;93608.66;;;31.03;22.97
79085;BME280;68486;42.808;23.422;2023-06-10T12:09:25;93613.25;;;31.48;21.65
79085;BME280;68486;42.808;23.422;2023-06-10T12:11:54;93598.88;;;30.78;23.41
79085;BME280;68486;42.808;23.422;2023-06-10T12:17:21;93617.63;;;34.68;18.38
79085;BME280;68486;42.808;23.422;2023-06-10T12:19:47;93605.06;;;33.30;20.13
79085;BME280;68486;42.808;23.422;2023-06-10T12:22:13;93604.75;;;31.95;22.29
79085;BME280;68486;42.808;23.422;2023-06-10T12:24:44;93600.63;;;34.36;19.99
79085;BME280;68486;42.808;23.422;2023-06-10T12:27:13;93567.50;;;34.30;19.63
79085;BME280;68486;42.808;23.422;2023-06-10T12:29:38;93596.56;;;35.69;17.57
79085;BME280;68486;42.808;23.422;2023-06-10T12:32:04;93592.47;;;36.05;17.43
79085;BME280;68486;42.808;23.422;2023-06-10T12:34:38;93592.13;;;34.76;17.36
79085;BME280;68486;42.808;23.422;2023-06-10T12:37:10;93589.22;;;33.16;19.92
79085;BME280;68486;42.808;23.422;2023-06-10T12:39:41;93576.88;;;28.90;24.87
79085;BME280;68486;42.808;23.422;2023-06-10T12:42:08;93591.81;;;28.09;25.55
79085;BME280;68486;42.808;23.422;2023-06-10T12:44:38;93575.47;;;29.39;23.70
79085;BME280;68486;42.808;23.422;2023-06-10T12:47:08;93580.59;;;29.70;26.46
79085;BME280;68486;42.808;23.422;2023-06-10T12:49:35;93583.63;;;30.40;24.85
79085;BME280;68486;42.808;23.422;2023-06-10T12:52:01;93577.53;;;30.01;24.79
79085;BME280;68486;42.808;23.422;2023-06-10T12:54:26;93553.91;;;29.39;24.00
79085;BME280;68486;42.808;23.422;2023-06-10T12:56:52;93584.41;;;28.15;26.87
79085;BME280;68486;42.808;23.422;2023-06-10T12:59:18;93588.16;;;27.79;28.76
79085;BME280;68486;42.808;23.422;2023-06-10T13:01:43;93596.44;;;28.26;27.53